Terminal Aerodrome Forecast
Issued by NWS Wilmington, NC

Home | Current Version | Previous Version | Text Only | Print | Product List | Glossary On
Versions: 1 2 3 4 5 6 7 8 9 10 11 12 13 14 15 16 17
286
FTUS42 KILM 291406 AAA
TAFLBT
TAF AMD
KLBT 291406Z 2914/3012 08005KT P6SM VCSH SCT020 BKN050 OVC090
     FM291700 13005KT P6SM VCTS SCT030CB SCT110 BKN250
     FM292100 17007KT P6SM SCT040 SCT110 SCT250
     FM300000 16003KT P6SM FEW030
     FM300600 VRB03KT P6SM VCSH SCT030 BKN080=

USA.gov is the U.S. government's official web portal to all federal, state and local government web resources and services.